createdAt,value
2022-11-30T00:01:47.832Z,1.70
2022-11-30T00:04:17.085Z,1.70
2022-11-30T00:06:44.834Z,2.10
2022-11-30T00:09:13.204Z,1.85
2022-11-30T00:11:41.014Z,1.70
2022-11-30T00:14:08.907Z,1.63
2022-11-30T00:16:37.061Z,1.63
2022-11-30T00:19:04.925Z,1.65
2022-11-30T00:21:34.229Z,1.60
2022-11-30T00:24:01.997Z,1.60
2022-11-30T00:26:29.733Z,1.70
2022-11-30T00:28:57.537Z,1.75
2022-11-30T00:31:25.729Z,1.65
2022-11-30T00:33:53.560Z,1.80
2022-11-30T00:36:23.046Z,1.75
2022-11-30T00:38:52.845Z,1.60
2022-11-30T00:41:21.375Z,1.80
2022-11-30T00:43:49.332Z,1.95
2022-11-30T00:46:17.135Z,1.80
2022-11-30T00:48:45.219Z,2.10
2022-11-30T00:51:13.369Z,1.92
2022-11-30T00:53:42.419Z,1.98
2022-11-30T00:56:12.174Z,2.00
2022-11-30T00:58:40.189Z,2.00
2022-11-30T01:01:08.511Z,1.90
2022-11-30T01:03:37.154Z,1.88
2022-11-30T01:06:05.419Z,1.77
2022-11-30T01:08:34.453Z,2.30
2022-11-30T01:11:07.891Z,1.92
2022-11-30T01:13:37.034Z,2.15
2022-11-30T01:18:39.773Z,2.30
2022-11-30T01:21:09.172Z,2.20
2022-11-30T01:23:37.268Z,2.08
2022-11-30T01:26:05.066Z,2.15
2022-11-30T01:28:33.265Z,2.20
2022-11-30T01:31:04.063Z,2.10
2022-11-30T01:33:32.242Z,2.13
2022-11-30T01:36:01.721Z,2.20
2022-11-30T01:38:33.604Z,2.50
2022-11-30T01:41:01.452Z,2.10
2022-11-30T01:43:42.622Z,2.00
2022-11-30T01:46:27.463Z,2.05
2022-11-30T01:49:01.635Z,2.38
2022-11-30T01:51:34.732Z,2.28
2022-11-30T01:54:03.699Z,2.17
2022-11-30T01:56:31.745Z,2.05
2022-11-30T01:58:59.736Z,2.17
2022-11-30T02:01:29.309Z,2.10
2022-11-30T02:06:28.146Z,1.80
2022-11-30T02:08:56.431Z,2.00
2022-11-30T02:11:25.340Z,2.35
2022-11-30T02:14:05.995Z,2.22
2022-11-30T02:16:45.829Z,2.15
2022-11-30T02:19:41.773Z,2.00
2022-11-30T02:22:23.359Z,2.20
2022-11-30T02:25:04.421Z,2.00
2022-11-30T02:27:47.073Z,2.10
2022-11-30T02:30:19.900Z,2.10
2022-11-30T02:32:53.865Z,2.22
2022-11-30T02:35:26.352Z,2.00
2022-11-30T02:37:55.423Z,2.13
2022-11-30T02:40:23.415Z,1.90
2022-11-30T02:42:54.603Z,1.83
2022-11-30T02:45:31.183Z,2.03
2022-11-30T02:48:06.118Z,1.98
2022-11-30T02:50:38.996Z,1.67
2022-11-30T02:53:07.463Z,2.03
2022-11-30T02:55:35.426Z,2.15
2022-11-30T02:58:03.223Z,2.10
2022-11-30T03:00:32.659Z,2.03
2022-11-30T03:03:00.485Z,2.40
2022-11-30T03:05:28.454Z,2.03
2022-11-30T03:07:56.277Z,2.30
2022-11-30T03:10:24.136Z,2.20
2022-11-30T03:12:52.005Z,2.30
2022-11-30T03:15:19.958Z,2.03
2022-11-30T03:17:49.038Z,2.17
2022-11-30T03:20:17.036Z,2.60
2022-11-30T03:22:44.840Z,1.98
2022-11-30T03:25:12.547Z,2.00
2022-11-30T03:27:40.395Z,2.10
2022-11-30T03:30:09.324Z,2.08
2022-11-30T03:32:37.049Z,2.10
2022-11-30T03:35:07.057Z,2.05
2022-11-30T03:37:34.798Z,2.20
2022-11-30T03:40:02.738Z,1.98
2022-11-30T03:42:30.512Z,2.13
2022-11-30T03:44:58.253Z,1.90
2022-11-30T03:47:25.948Z,1.90
2022-11-30T03:49:53.700Z,2.15
2022-11-30T03:52:23.022Z,2.17
2022-11-30T03:54:50.770Z,2.35
2022-11-30T03:57:18.528Z,2.10
2022-11-30T03:59:46.266Z,1.98
2022-11-30T04:02:14.145Z,2.15
2022-11-30T04:04:41.971Z,2.40
2022-11-30T04:07:09.713Z,2.10
2022-11-30T04:09:39.256Z,1.70
2022-11-30T04:12:07.403Z,2.05
2022-11-30T04:14:35.183Z,1.85
2022-11-30T04:17:03.035Z,1.83
2022-11-30T04:19:30.820Z,1.70
2022-11-30T04:21:58.664Z,1.88
2022-11-30T04:24:26.370Z,2.00
2022-11-30T04:26:55.653Z,1.88
2022-11-30T04:29:23.691Z,2.25
2022-11-30T04:31:51.482Z,2.30
2022-11-30T04:34:19.294Z,1.98
2022-11-30T04:36:47.043Z,2.08
2022-11-30T04:39:14.805Z,2.13
2022-11-30T04:41:42.647Z,2.10
2022-11-30T04:44:12.027Z,2.08
2022-11-30T04:46:39.843Z,2.33
2022-11-30T04:49:07.923Z,1.85
2022-11-30T04:51:35.655Z,1.98
2022-11-30T04:54:03.498Z,2.17
2022-11-30T04:56:31.233Z,1.75
2022-11-30T04:58:58.990Z,1.95
2022-11-30T05:01:28.676Z,1.92
2022-11-30T05:03:57.566Z,1.92
2022-11-30T05:06:25.406Z,2.20
2022-11-30T05:08:53.207Z,2.00
2022-11-30T05:11:21.021Z,1.90
2022-11-30T05:13:48.785Z,2.05
2022-11-30T05:16:16.558Z,1.95
2022-11-30T05:18:45.685Z,2.17
2022-11-30T05:21:13.877Z,1.83
2022-11-30T05:23:41.660Z,1.77
2022-11-30T05:26:09.437Z,1.73
2022-11-30T05:28:37.340Z,1.67
2022-11-30T05:31:05.699Z,1.90
2022-11-30T05:33:34.329Z,1.63
2022-11-30T05:36:08.795Z,1.90
2022-11-30T05:38:38.400Z,2.00
2022-11-30T05:41:06.453Z,1.77
2022-11-30T05:43:34.255Z,1.73
2022-11-30T05:46:03.166Z,1.83
2022-11-30T05:48:31.277Z,1.70
2022-11-30T05:51:07.859Z,1.60
2022-11-30T05:53:36.089Z,1.80
2022-11-30T05:56:05.189Z,1.98
2022-11-30T05:58:32.996Z,2.38
2022-11-30T06:01:00.844Z,1.90
2022-11-30T06:03:30.229Z,2.03
2022-11-30T06:05:58.103Z,1.92
2022-11-30T06:08:28.903Z,1.60
2022-11-30T06:11:01.292Z,2.20
2022-11-30T06:13:29.192Z,1.60
2022-11-30T06:16:00.341Z,1.60
2022-11-30T06:18:28.252Z,2.00
2022-11-30T06:20:56.029Z,1.80
2022-11-30T06:23:23.819Z,1.75
2022-11-30T06:25:53.012Z,2.10
2022-11-30T06:28:20.805Z,2.13
2022-11-30T06:30:48.646Z,1.80
2022-11-30T06:33:16.433Z,1.73
2022-11-30T06:35:47.268Z,1.95
2022-11-30T06:38:15.013Z,2.00
2022-11-30T06:40:42.769Z,1.50
2022-11-30T06:43:12.268Z,1.73
2022-11-30T06:45:40.225Z,1.88
2022-11-30T06:48:08.048Z,1.83
2022-11-30T06:50:35.831Z,1.80
2022-11-30T06:53:03.697Z,1.70
2022-11-30T06:55:32.883Z,1.80
2022-11-30T06:58:06.479Z,1.95
2022-11-30T07:00:36.420Z,1.90
2022-11-30T07:03:04.735Z,1.90
2022-11-30T07:05:35.427Z,1.75
2022-11-30T07:08:03.257Z,1.50
2022-11-30T07:10:31.004Z,1.92
2022-11-30T07:12:58.775Z,1.85
2022-11-30T07:15:26.587Z,2.00
2022-11-30T07:17:55.653Z,2.10
2022-11-30T07:20:23.457Z,1.75
2022-11-30T07:22:51.250Z,1.88
2022-11-30T07:25:36.556Z,1.48
2022-11-30T07:28:04.304Z,1.92
2022-11-30T07:30:33.028Z,2.00
2022-11-30T07:33:02.129Z,1.73
2022-11-30T07:35:29.849Z,1.92
2022-11-30T07:37:57.607Z,2.00
2022-11-30T07:40:25.788Z,1.77
2022-11-30T07:42:56.431Z,2.00
2022-11-30T07:45:24.184Z,1.98
2022-11-30T07:47:51.972Z,1.70
2022-11-30T07:50:21.063Z,1.40
2022-11-30T07:52:48.789Z,1.80
2022-11-30T07:55:16.777Z,1.42
2022-11-30T07:57:44.564Z,1.85
2022-11-30T08:00:13.567Z,1.63
2022-11-30T08:02:41.260Z,2.08
2022-11-30T08:05:12.054Z,2.00
2022-11-30T08:07:41.217Z,2.20
2022-11-30T08:10:10.345Z,1.88
2022-11-30T08:12:38.108Z,1.63
2022-11-30T08:15:27.359Z,1.60
2022-11-30T08:17:55.384Z,1.73
2022-11-30T08:20:23.811Z,1.73
2022-11-30T08:22:52.956Z,1.42
2022-11-30T08:25:20.682Z,1.67
2022-11-30T08:27:48.457Z,1.10
2022-11-30T08:30:16.733Z,1.55
2022-11-30T08:32:44.525Z,1.60
2022-11-30T08:35:12.598Z,1.30
2022-11-30T08:37:40.331Z,1.20
2022-11-30T08:40:10.766Z,1.40
2022-11-30T08:42:38.814Z,1.20
2022-11-30T08:45:07.493Z,1.30
2022-11-30T08:47:35.338Z,1.38
2022-11-30T08:50:03.395Z,1.40
2022-11-30T08:52:31.299Z,1.50
2022-11-30T08:54:59.077Z,1.50
2022-11-30T08:57:28.288Z,1.23
2022-11-30T08:59:56.058Z,1.10
2022-11-30T09:02:23.836Z,1.40
2022-11-30T09:04:53.493Z,1.30
2022-11-30T09:09:49.034Z,1.15
2022-11-30T09:12:16.810Z,1.25
2022-11-30T09:14:49.576Z,1.35
2022-11-30T09:17:20.255Z,1.10
2022-11-30T09:19:47.988Z,1.10
2022-11-30T09:22:15.767Z,1.25
2022-11-30T09:24:43.514Z,0.90
2022-11-30T09:27:11.283Z,1.10
2022-11-30T09:29:40.023Z,0.88
2022-11-30T09:32:09.248Z,1.20
2022-11-30T09:34:37.024Z,1.20
2022-11-30T09:37:04.760Z,1.00
2022-11-30T09:39:32.762Z,1.10
2022-11-30T09:42:25.818Z,0.98
2022-11-30T09:45:02.956Z,1.10
2022-11-30T09:47:57.400Z,0.93
2022-11-30T09:50:28.664Z,1.20
2022-11-30T09:52:59.373Z,1.05
2022-11-30T09:55:31.337Z,1.00
2022-11-30T09:58:04.047Z,1.00
2022-11-30T10:00:32.211Z,1.20
2022-11-30T10:03:05.788Z,1.10
2022-11-30T10:05:48.480Z,1.50
2022-11-30T10:08:32.311Z,1.27
2022-11-30T10:11:25.558Z,1.55
2022-11-30T10:14:06.091Z,1.10
2022-11-30T10:16:44.345Z,1.10
2022-11-30T10:19:28.615Z,1.20
2022-11-30T10:22:08.144Z,1.42
2022-11-30T10:24:58.053Z,1.25
2022-11-30T10:27:42.161Z,1.58
2022-11-30T10:30:16.317Z,1.60
2022-11-30T10:32:48.712Z,1.30
2022-11-30T10:35:30.182Z,1.33
2022-11-30T10:37:59.198Z,1.50
2022-11-30T10:40:38.798Z,1.30
2022-11-30T10:43:15.595Z,1.40
2022-11-30T10:45:49.334Z,1.50
2022-11-30T10:48:22.704Z,1.40
2022-11-30T10:50:53.706Z,1.70
2022-11-30T10:53:22.037Z,1.40
2022-11-30T10:55:59.715Z,1.77
2022-11-30T10:58:32.097Z,1.70
2022-11-30T11:01:04.198Z,1.55
2022-11-30T11:03:32.650Z,2.00
2022-11-30T11:06:15.268Z,1.55
2022-11-30T11:08:45.506Z,1.50
2022-11-30T11:11:29.834Z,1.70
2022-11-30T11:14:10.892Z,1.80
2022-11-30T11:16:54.772Z,1.50
2022-11-30T11:19:33.263Z,1.65
2022-11-30T11:22:05.588Z,1.40
2022-11-30T11:24:35.151Z,1.60
2022-11-30T11:27:03.172Z,1.30
2022-11-30T11:29:33.903Z,1.60
2022-11-30T11:32:16.647Z,1.65
2022-11-30T11:34:49.503Z,1.67
2022-11-30T11:37:23.364Z,1.38
2022-11-30T11:40:02.437Z,1.50
2022-11-30T11:42:33.268Z,1.40
2022-11-30T11:45:03.267Z,1.60
2022-11-30T11:47:38.973Z,1.20
2022-11-30T11:50:49.951Z,1.42
2022-11-30T11:53:22.795Z,1.60
2022-11-30T11:55:54.764Z,1.70
2022-11-30T11:58:33.995Z,1.30
2022-11-30T12:01:31.546Z,2.00
2022-11-30T12:04:01.557Z,1.85
2022-11-30T12:06:32.080Z,1.70
2022-11-30T12:09:08.316Z,1.67
2022-11-30T12:11:42.848Z,1.75
2022-11-30T12:14:13.610Z,1.90
2022-11-30T12:17:02.480Z,1.88
2022-11-30T12:19:38.382Z,1.77
2022-11-30T12:22:24.952Z,1.70
2022-11-30T12:25:07.914Z,1.80
2022-11-30T12:27:52.065Z,1.90
2022-11-30T12:30:26.059Z,2.10
2022-11-30T12:33:19.170Z,2.10
2022-11-30T12:36:03.253Z,2.13
2022-11-30T12:38:42.567Z,2.28
2022-11-30T12:41:28.305Z,2.00
2022-11-30T12:44:06.301Z,1.88
2022-11-30T12:46:40.320Z,1.98
2022-11-30T12:49:26.277Z,1.80
2022-11-30T12:52:04.041Z,2.00
2022-11-30T12:54:40.309Z,2.15
2022-11-30T12:57:17.112Z,2.20
2022-11-30T12:59:52.995Z,2.10
2022-11-30T13:02:40.932Z,2.00
2022-11-30T13:05:12.919Z,2.13
2022-11-30T13:07:44.743Z,1.75
2022-11-30T13:10:24.051Z,1.80
2022-11-30T13:12:55.353Z,2.22
2022-11-30T13:15:26.198Z,2.15
2022-11-30T13:17:55.192Z,2.10
2022-11-30T13:20:30.236Z,2.03
2022-11-30T13:23:04.185Z,2.40
2022-11-30T13:26:07.358Z,2.40
2022-11-30T13:28:38.725Z,2.08
2022-11-30T13:31:10.015Z,2.60
2022-11-30T13:33:48.756Z,2.03
2022-11-30T13:36:40.784Z,2.50
2022-11-30T13:39:22.487Z,2.25
2022-11-30T13:41:53.370Z,2.63
2022-11-30T13:44:31.704Z,2.53
2022-11-30T13:47:01.266Z,2.35
2022-11-30T13:52:21.688Z,2.63
2022-11-30T13:54:47.631Z,2.20
2022-11-30T13:57:40.292Z,2.85
2022-11-30T14:00:52.841Z,2.60
2022-11-30T14:03:32.459Z,2.65
2022-11-30T14:08:35.170Z,2.65
2022-11-30T14:11:41.414Z,2.80
2022-11-30T14:14:45.114Z,3.35
2022-11-30T14:17:20.953Z,3.25
2022-11-30T14:19:52.330Z,3.38
2022-11-30T14:22:20.663Z,3.30
2022-11-30T14:24:50.361Z,3.47
2022-11-30T14:27:23.476Z,2.97
2022-11-30T14:29:53.701Z,3.72
2022-11-30T14:32:30.907Z,3.72
2022-11-30T14:35:09.129Z,3.88
2022-11-30T14:37:42.770Z,4.35
2022-11-30T14:40:19.030Z,3.75
2022-11-30T14:42:49.981Z,3.83
2022-11-30T14:45:22.707Z,4.13
2022-11-30T14:47:52.868Z,4.05
2022-11-30T14:50:27.360Z,4.32
2022-11-30T14:53:06.251Z,3.72
2022-11-30T14:55:40.108Z,4.53
2022-11-30T14:58:19.009Z,4.20
2022-11-30T15:00:48.233Z,4.13
2022-11-30T15:03:24.591Z,4.88
2022-11-30T15:05:56.442Z,3.95
2022-11-30T15:08:26.967Z,3.85
2022-11-30T15:10:56.467Z,3.92
2022-11-30T15:13:24.243Z,4.43
2022-11-30T15:15:54.162Z,3.83
2022-11-30T15:18:23.857Z,4.75
2022-11-30T15:21:00.066Z,4.68
2022-11-30T15:23:28.025Z,3.90
2022-11-30T15:26:01.105Z,4.40
2022-11-30T15:28:34.407Z,4.22
2022-11-30T15:31:05.980Z,4.07
2022-11-30T15:33:38.112Z,4.70
2022-11-30T15:36:33.162Z,3.85
2022-11-30T15:38:56.149Z,5.07
2022-11-30T15:41:25.575Z,4.35
2022-11-30T15:43:55.152Z,4.63
2022-11-30T15:49:07.300Z,4.38
2022-11-30T15:51:40.659Z,4.60
2022-11-30T15:54:08.586Z,4.60
2022-11-30T15:56:36.732Z,4.25
2022-11-30T15:59:06.859Z,4.85
2022-11-30T16:02:01.524Z,4.97
2022-11-30T16:04:30.686Z,4.75
2022-11-30T16:06:59.984Z,4.43
2022-11-30T16:09:32.555Z,4.28
2022-11-30T16:12:02.009Z,5.18
2022-11-30T16:14:29.905Z,4.47
2022-11-30T16:16:57.958Z,5.40
2022-11-30T16:19:25.974Z,4.63
2022-11-30T16:21:53.747Z,5.07
2022-11-30T16:24:24.548Z,4.80
2022-11-30T16:26:52.455Z,4.68
2022-11-30T16:29:20.571Z,4.22
2022-11-30T16:31:48.457Z,4.90
2022-11-30T16:34:17.409Z,4.22
2022-11-30T16:36:45.162Z,4.82
2022-11-30T16:39:13.709Z,4.47
2022-11-30T16:41:43.447Z,5.00
2022-11-30T16:44:14.557Z,3.92
2022-11-30T16:46:42.277Z,4.40
2022-11-30T16:49:09.961Z,4.68
2022-11-30T16:51:37.754Z,5.22
2022-11-30T16:54:05.723Z,4.03
2022-11-30T16:56:33.615Z,4.65
2022-11-30T16:59:02.777Z,4.80
2022-11-30T17:01:36.129Z,4.20
2022-11-30T17:04:13.081Z,4.65
2022-11-30T17:06:40.973Z,4.63
2022-11-30T17:09:12.495Z,4.13
2022-11-30T17:11:40.894Z,4.07
2022-11-30T17:14:11.886Z,3.95
2022-11-30T17:16:39.725Z,4.13
2022-11-30T17:19:07.776Z,4.07
2022-11-30T17:21:37.974Z,4.75
2022-11-30T17:24:07.314Z,4.30
2022-11-30T17:26:35.082Z,4.25
2022-11-30T17:29:03.232Z,3.95
2022-11-30T17:31:32.669Z,4.55
2022-11-30T17:36:29.316Z,4.32
2022-11-30T17:38:57.273Z,4.75
2022-11-30T17:41:25.009Z,4.45
2022-11-30T17:43:53.041Z,4.25
2022-11-30T17:46:22.472Z,4.13
2022-11-30T17:51:19.278Z,4.35
2022-11-30T17:53:51.558Z,4.63
2022-11-30T17:56:26.207Z,4.18
2022-11-30T17:58:58.848Z,5.03
2022-11-30T18:01:31.335Z,4.28
2022-11-30T18:04:04.833Z,4.90
2022-11-30T18:06:36.853Z,4.30
2022-11-30T18:09:08.579Z,4.25
2022-11-30T18:11:43.721Z,4.22
2022-11-30T18:14:16.758Z,4.80
2022-11-30T18:16:49.097Z,4.55
2022-11-30T18:19:23.488Z,4.75
2022-11-30T18:21:56.350Z,4.78
2022-11-30T18:24:31.636Z,4.80
2022-11-30T18:27:04.467Z,5.00
2022-11-30T18:29:36.332Z,4.82
2022-11-30T18:32:09.218Z,5.32
2022-11-30T18:34:42.816Z,4.72
2022-11-30T18:37:17.267Z,4.70
2022-11-30T18:39:50.723Z,4.68
2022-11-30T18:42:24.843Z,4.28
2022-11-30T18:44:58.899Z,3.58
2022-11-30T18:47:30.235Z,3.92
2022-11-30T18:50:03.866Z,4.63
2022-11-30T18:52:35.713Z,4.18
2022-11-30T18:55:08.096Z,4.85
2022-11-30T18:57:39.895Z,4.25
2022-11-30T19:00:13.558Z,4.10
2022-11-30T19:02:47.846Z,4.65
2022-11-30T19:05:34.473Z,3.90
2022-11-30T19:08:10.035Z,4.00
2022-11-30T19:10:42.582Z,4.18
2022-11-30T19:13:13.802Z,4.18
2022-11-30T19:15:42.869Z,4.28
2022-11-30T19:18:13.176Z,4.40
2022-11-30T19:20:43.152Z,4.97
2022-11-30T19:23:10.940Z,5.40
2022-11-30T19:25:38.818Z,4.78
2022-11-30T19:28:06.740Z,3.92
2022-11-30T19:30:34.562Z,4.32
2022-11-30T19:33:02.584Z,3.72
2022-11-30T19:35:30.553Z,3.80
2022-11-30T19:38:02.779Z,3.63
2022-11-30T19:40:30.799Z,3.35
2022-11-30T19:42:59.346Z,3.25
2022-11-30T19:45:27.035Z,3.60
2022-11-30T19:47:54.720Z,3.47
2022-11-30T19:50:22.648Z,3.65
2022-11-30T19:52:50.563Z,3.20
2022-11-30T19:55:19.836Z,3.70
2022-11-30T19:57:47.564Z,3.42
2022-11-30T20:00:16.114Z,3.15
2022-11-30T20:02:48.123Z,3.67
2022-11-30T20:05:16.117Z,3.78
2022-11-30T20:07:44.405Z,3.60
2022-11-30T20:10:14.353Z,2.97
2022-11-30T20:12:43.430Z,4.18
2022-11-30T20:15:11.896Z,4.32
2022-11-30T20:17:39.735Z,3.85
2022-11-30T20:20:08.351Z,3.85
2022-11-30T20:22:36.113Z,3.77
2022-11-30T20:25:03.932Z,3.70
2022-11-30T20:27:31.694Z,3.85
2022-11-30T20:30:00.857Z,3.80
2022-11-30T20:32:28.667Z,3.65
2022-11-30T20:34:56.456Z,4.13
2022-11-30T20:37:24.208Z,4.10
2022-11-30T20:39:51.959Z,3.60
2022-11-30T20:42:19.688Z,4.28
2022-11-30T20:44:47.752Z,3.80
2022-11-30T20:47:17.101Z,4.05
2022-11-30T20:49:44.862Z,4.30
2022-11-30T20:52:12.584Z,3.25
2022-11-30T20:54:40.364Z,4.20
2022-11-30T20:57:08.391Z,4.15
2022-11-30T20:59:36.271Z,4.20
2022-11-30T21:02:05.001Z,4.28
2022-11-30T21:04:34.224Z,5.10
2022-11-30T21:07:02.047Z,4.20
2022-11-30T21:09:29.908Z,3.97
2022-11-30T21:11:57.861Z,4.15
2022-11-30T21:14:25.591Z,4.30
2022-11-30T21:16:53.345Z,4.13
2022-11-30T21:19:21.149Z,4.13
2022-11-30T21:21:50.318Z,4.68
2022-11-30T21:24:18.067Z,4.45
2022-11-30T21:26:45.877Z,4.80
2022-11-30T21:29:15.426Z,4.32
2022-11-30T21:34:11.010Z,4.15
2022-11-30T21:36:39.282Z,4.13
2022-11-30T21:39:09.261Z,4.57
2022-11-30T21:41:38.953Z,4.28
2022-11-30T21:44:08.395Z,4.25
2022-11-30T21:46:36.300Z,4.38
2022-11-30T21:49:04.618Z,4.38
2022-11-30T21:51:32.976Z,4.00
2022-11-30T21:54:02.169Z,3.92
2022-11-30T21:56:33.460Z,4.07
2022-11-30T21:59:01.583Z,3.78
2022-11-30T22:01:31.152Z,4.10
2022-11-30T22:06:29.204Z,4.07
2022-11-30T22:08:57.519Z,4.15
2022-11-30T22:11:25.289Z,3.83
2022-11-30T22:13:55.700Z,4.50
2022-11-30T22:16:26.373Z,4.22
2022-11-30T22:18:57.401Z,4.35
2022-11-30T22:23:56.067Z,4.68
2022-11-30T22:26:25.393Z,4.40
2022-11-30T22:28:57.542Z,4.38
2022-11-30T22:31:27.561Z,3.63
2022-11-30T22:33:56.274Z,4.07
2022-11-30T22:36:25.929Z,3.93
2022-11-30T22:41:25.527Z,4.07
2022-11-30T22:43:56.340Z,3.78
2022-11-30T22:46:25.972Z,3.72
2022-11-30T22:48:54.133Z,3.53
2022-11-30T22:51:24.105Z,4.32
2022-11-30T22:53:52.577Z,3.72
2022-11-30T22:56:22.444Z,3.85
2022-11-30T22:58:53.937Z,3.90
2022-11-30T23:01:25.137Z,4.20
2022-11-30T23:03:56.255Z,3.38
2022-11-30T23:06:25.553Z,3.90
2022-11-30T23:08:53.752Z,3.95
2022-11-30T23:11:23.810Z,3.60
2022-11-30T23:13:52.308Z,3.88
2022-11-30T23:16:21.377Z,3.95
2022-11-30T23:18:53.918Z,3.35
2022-11-30T23:21:23.895Z,4.55
2022-11-30T23:23:52.066Z,4.32
2022-11-30T23:26:21.465Z,4.07
2022-11-30T23:28:50.651Z,3.97
2022-11-30T23:31:33.834Z,4.60
2022-11-30T23:34:06.705Z,3.90
2022-11-30T23:36:35.032Z,3.95
2022-11-30T23:39:06.452Z,3.95
2022-11-30T23:41:34.318Z,4.00
2022-11-30T23:44:02.848Z,3.90
2022-11-30T23:46:30.726Z,3.72
2022-11-30T23:48:58.747Z,3.85
2022-11-30T23:51:28.659Z,4.10
2022-11-30T23:53:56.427Z,3.72
2022-11-30T23:56:25.223Z,4.20
2022-11-30T23:58:53.601Z,3.53
